.
WxDataArchive / Data Records for 2013-09-06
2013-09-05 September 2013 2013-09-07

Data Records for Friday, 06 September 2013

Time	Temp	Chill	HIndex	Humid	Dewpt	 Wind 	HiWind	WindDir	Rain 	Barom 
-----	----	-----	------	-----	-----	------	------	-------	-----	----- 
00:00	58.3	58.3	58.3	58	43.6	0	0	---	0.00	30.217 
00:05	58.0	58.0	58.0	58	43.3	0	0	---	0.00	30.217 
00:10	57.6	57.6	57.6	59	43.4	0	0	---	0.00	30.217 
00:15	57.2	57.2	57.2	60	43.4	0	0	---	0.00	30.217 
00:20	56.9	56.9	56.9	61	43.6	0	0	---	0.00	30.217 
00:25	56.6	56.6	56.6	62	43.7	0	0	---	0.00	30.217 
00:30	56.5	56.5	56.5	63	44.1	0	0	---	0.00	30.218 
00:35	56.2	56.2	56.2	64	44.2	0	0	---	0.00	30.218 
00:40	56.0	56.0	56.0	64	44.0	0	0	---	0.00	30.218 
00:45	55.7	55.7	55.7	65	44.1	0	0	---	0.00	30.221 
00:50	55.6	55.6	55.6	65	44.0	0	0	---	0.00	30.221 
00:55	55.3	55.3	55.3	65	43.7	0	0	---	0.00	30.221 
01:00	55.1	55.1	55.1	66	43.9	0	0	---	0.00	30.225 
01:05	55.0	55.0	55.0	67	44.2	0	0	---	0.00	30.225 
01:10	54.8	54.8	54.8	68	44.4	0	0	---	0.00	30.225 
01:15	54.7	54.7	54.7	68	44.3	0	0	---	0.00	30.225 
01:20	54.5	54.5	54.5	69	44.5	0	0	---	0.00	30.225 
01:25	54.4	54.4	54.4	69	44.4	0	0	---	0.00	30.225 
01:30	54.1	54.1	54.1	69	44.2	0	0	---	0.00	30.226 
01:35	53.9	53.9	53.9	70	44.3	0	0	---	0.00	30.226 
01:40	53.8	53.8	53.8	71	44.6	0	0	---	0.00	30.226 
01:45	53.6	53.6	53.6	72	44.8	0	0	---	0.00	30.225 
01:50	53.3	53.3	53.3	72	44.5	0	0	---	0.00	30.225 
01:55	53.2	53.2	53.2	73	44.8	0	0	---	0.00	30.225 
02:00	53.1	53.1	53.1	74	45.0	0	0	---	0.00	30.220 
02:05	52.9	52.9	52.9	74	44.8	0	0	---	0.00	30.220 
02:10	52.8	52.8	52.8	75	45.1	0	0	---	0.00	30.220 
02:15	52.6	52.6	52.6	77	45.6	0	0	---	0.00	30.221 
02:20	52.5	52.5	52.5	77	45.5	0	0	---	0.00	30.221 
02:25	52.5	52.5	52.5	78	45.8	0	0	---	0.00	30.221 
02:30	52.3	52.3	52.3	78	45.6	0	0	---	0.00	30.224 
02:35	52.2	52.2	52.2	78	45.5	0	0	---	0.00	30.224 
02:40	52.2	52.2	52.2	78	45.5	0	0	---	0.00	30.224 
02:45	52.0	52.0	52.0	78	45.4	0	0	---	0.00	30.229 
02:50	52.0	52.0	52.0	78	45.4	0	0	---	0.00	30.229 
02:55	51.9	51.9	51.9	78	45.3	0	0	---	0.00	30.229 
03:00	51.7	51.7	51.7	78	45.1	0	0	---	0.00	30.229 
03:05	51.7	51.7	51.7	78	45.1	0	0	---	0.00	30.229 
03:10	51.6	51.6	51.6	79	45.3	0	0	---	0.00	30.229 
03:15	51.4	51.4	51.4	79	45.1	0	0	---	0.00	30.225 
03:20	51.3	51.3	51.3	79	45.0	0	0	---	0.00	30.225 
03:25	51.1	51.1	51.1	79	44.8	0	0	---	0.00	30.225 
03:30	51.1	51.1	51.1	80	45.1	0	0	---	0.00	30.223 
03:35	51.0	51.0	51.0	80	45.0	0	0	---	0.00	30.223 
03:40	50.8	50.8	50.8	80	44.9	0	0	---	0.00	30.223 
03:45	50.8	50.8	50.8	80	44.9	0	0	---	0.00	30.231 
03:50	50.8	50.8	50.8	81	45.2	0	0	---	0.00	30.231 
03:55	50.8	50.8	50.8	81	45.2	0	0	---	0.00	30.231 
04:00	50.8	50.8	50.8	81	45.2	0	0	---	0.00	30.233 
04:05	50.7	50.7	50.7	81	45.1	0	0	---	0.00	30.233 
04:10	50.7	50.7	50.7	81	45.1	0	0	---	0.00	30.233 
04:15	50.5	50.5	50.5	82	45.2	0	0	---	0.00	30.237 
04:20	50.5	50.5	50.5	82	45.2	0	0	---	0.00	30.237 
04:25	50.4	50.4	50.4	83	45.4	0	0	---	0.00	30.237 
04:30	50.4	50.4	50.4	83	45.4	0	0	---	0.00	30.243 
04:35	50.4	50.4	50.4	83	45.4	0	0	---	0.00	30.243 
04:40	50.4	50.4	50.4	84	45.7	0	0	---	0.00	30.243 
04:45	50.4	50.4	50.4	84	45.7	0	0	---	0.00	30.248 
04:50	50.5	50.5	50.5	84	45.8	0	0	---	0.00	30.248 
04:55	50.8	50.8	50.8	84	46.1	0	0	---	0.00	30.248 
05:00	51.1	51.1	51.1	83	46.1	0	1	68	0.00	30.241 
05:05	51.3	51.3	51.3	83	46.3	0	1	68	0.00	30.241 
05:10	51.3	51.3	51.3	83	46.3	0	1	68	0.00	30.241 
05:15	51.3	51.3	51.3	83	46.3	0	1	68	0.00	30.241 
05:20	51.3	51.3	51.3	83	46.3	0	1	68	0.00	30.241 
05:25	51.3	51.3	51.3	83	46.3	0	2	68	0.00	30.241 
05:30	51.1	51.1	51.1	83	46.1	0	1	68	0.00	30.238 
05:35	51.1	51.1	51.1	83	46.1	0	1	68	0.00	30.238 
05:40	51.0	51.0	51.0	83	46.0	0	0	---	0.00	30.238 
05:45	51.0	51.0	51.0	83	46.0	0	0	---	0.00	30.237 
05:50	50.8	50.8	50.8	83	45.8	0	0	---	0.00	30.237 
05:55	50.5	50.5	50.5	84	45.8	0	0	---	0.00	30.237 
06:00	50.4	50.4	50.4	84	45.7	0	0	---	0.00	30.237 
06:05	50.1	50.1	50.1	84	45.5	0	0	---	0.00	30.237 
06:10	49.8	49.8	49.8	84	45.2	0	0	---	0.00	30.237 
06:15	49.5	49.5	49.5	85	45.2	0	0	---	0.00	30.246 
06:20	49.4	49.4	49.4	86	45.4	0	0	---	0.00	30.246 
06:25	49.2	49.2	49.2	86	45.2	0	0	---	0.00	30.246 
06:30	49.1	49.1	49.1	86	45.1	0	0	---	0.00	30.243 
06:35	48.9	48.9	48.9	87	45.2	0	0	---	0.00	30.243 
06:40	48.8	48.8	48.8	87	45.1	0	0	---	0.00	30.243 
06:45	48.6	48.6	48.6	87	44.9	0	0	---	0.00	30.251 
06:50	48.6	48.6	48.6	88	45.2	0	0	---	0.00	30.251 
06:55	48.5	48.5	48.5	88	45.1	0	0	---	0.00	30.251 
07:00	48.3	48.3	48.3	88	44.9	0	0	---	0.00	30.251 
07:05	48.2	48.2	48.2	88	44.8	0	0	---	0.00	30.251 
07:10	48.2	48.2	48.2	88	44.8	0	0	---	0.00	30.251 
07:15	48.2	48.2	48.2	89	45.1	0	0	---	0.00	30.257 
07:20	48.2	48.2	48.2	89	45.1	0	0	---	0.00	30.257 
07:25	48.2	48.2	48.2	89	45.1	0	0	---	0.00	30.257 
07:30	48.2	48.2	48.2	89	45.1	0	0	---	0.00	30.260 
07:35	48.2	48.2	48.2	90	45.4	0	0	---	0.00	30.260 
07:40	48.2	48.2	48.2	90	45.4	0	0	---	0.00	30.260 
07:45	48.3	48.3	48.3	90	45.5	0	0	---	0.00	30.260 
07:50	48.5	48.5	48.5	90	45.7	0	0	---	0.00	30.260 
07:55	48.8	48.8	48.8	91	46.3	0	0	---	0.00	30.260 
08:00	49.1	49.1	49.1	91	46.6	0	0	---	0.00	30.259 
08:05	49.4	49.4	49.4	91	46.9	0	0	---	0.00	30.259 
08:10	49.8	49.8	49.8	91	47.3	0	0	---	0.00	30.259 
08:15	50.2	50.2	50.2	92	48.0	0	0	---	0.00	30.267 
08:20	50.7	50.7	50.7	92	48.5	0	0	---	0.00	30.267 
08:25	51.1	51.1	51.1	91	48.6	0	1	68	0.00	30.267 
08:30	51.7	51.7	51.7	91	49.2	0	0	---	0.00	30.261 
08:35	52.3	52.3	52.3	90	49.5	0	1	68	0.00	30.261 
08:40	53.2	53.2	53.2	87	49.4	0	1	68	0.00	30.261 
08:45	53.9	53.9	53.9	85	49.5	0	2	68	0.00	30.256 
08:50	54.5	54.5	54.5	82	49.1	0	1	68	0.00	30.256 
08:55	55.1	55.1	55.1	80	49.0	0	1	68	0.00	30.256 
09:00	55.7	55.7	55.7	78	48.9	0	1	68	0.00	30.253 
09:05	56.2	56.2	56.2	77	49.1	0	3	68	0.00	30.253 
09:10	56.7	56.7	56.7	74	48.5	0	2	68	0.00	30.253 
09:15	57.0	57.0	57.0	73	48.4	0	3	135	0.00	30.254 
09:20	57.5	57.5	57.5	73	48.9	0	2	135	0.00	30.254 
09:25	58.0	58.0	58.0	72	49.0	0	1	135	0.00	30.254 
09:30	58.3	58.3	58.3	70	48.6	0	2	135	0.00	30.247 
09:35	58.7	58.7	58.7	68	48.2	0	2	135	0.00	30.247 
09:40	59.3	59.3	59.3	67	48.3	1	2	135	0.00	30.247 
09:45	59.8	59.8	59.8	67	48.8	0	2	225	0.00	30.238 
09:50	60.2	60.2	60.2	64	48.0	1	3	158	0.00	30.238 
09:55	60.7	60.7	60.7	64	48.4	0	2	158	0.00	30.238 
10:00	61.2	61.2	61.2	62	48.1	0	3	90	0.00	30.239 
10:05	61.6	61.6	61.6	61	48.0	1	4	90	0.00	30.239 
10:10	62.1	62.1	62.1	59	47.6	1	3	135	0.00	30.239 
10:15	62.9	62.9	62.9	58	47.9	1	4	68	0.00	30.247 
10:20	64.0	64.0	64.0	57	48.5	1	2	112	0.00	30.247 
10:25	65.0	65.0	65.0	55	48.4	2	5	112	0.00	30.247 
10:30	65.2	65.2	65.2	55	48.6	2	6	90	0.00	30.243 
10:35	65.6	65.6	65.6	55	49.0	1	4	90	0.00	30.243 
10:40	66.8	66.8	66.8	53	49.1	0	2	90	0.00	30.243 
10:45	67.8	67.8	67.8	51	49.0	0	4	90	0.00	30.244 
10:50	68.6	68.6	68.6	50	49.2	0	2	135	0.00	30.244 
10:55	69.4	69.4	69.4	49	49.4	1	5	135	0.00	30.244 
11:00	69.6	69.6	69.6	49	49.6	1	5	112	0.00	30.238 
11:05	70.1	70.1	70.1	48	49.5	1	3	112	0.00	30.238 
11:10	70.3	70.3	70.3	47	49.1	2	6	112	0.00	30.238 
11:15	70.3	70.3	70.3	47	49.1	0	3	90	0.00	30.235 
11:20	70.6	70.6	70.6	47	49.4	1	3	90	0.00	30.235 
11:25	71.1	71.1	71.1	46	49.3	1	3	135	0.00	30.235 
11:30	71.6	71.6	71.6	46	49.7	0	2	135	0.00	30.231 
11:35	72.3	72.3	72.3	44	49.2	1	4	112	0.00	30.231 
11:40	72.5	72.5	72.5	45	49.9	1	3	135	0.00	30.231 
11:45	72.7	72.7	72.7	44	49.5	0	2	135	0.00	30.230 
11:50	72.7	72.7	72.7	45	50.1	1	3	135	0.00	30.230 
11:55	73.2	73.2	73.2	43	49.3	0	1	135	0.00	30.230 
12:00	73.5	73.5	73.5	43	49.6	1	5	90	0.00	30.221 
12:05	73.5	73.5	73.5	44	50.2	1	3	90	0.00	30.221 
12:10	73.2	73.2	73.2	45	50.6	2	6	90	0.00	30.221 
12:15	73.3	73.3	73.3	43	49.4	0	2	90	0.00	30.221 
12:20	73.9	73.9	73.9	43	50.0	1	3	90	0.00	30.221 
12:25	73.9	73.9	73.9	43	50.0	1	4	90	0.00	30.221 
12:30	74.0	74.0	74.0	42	49.4	0	2	90	0.00	30.218 
12:35	74.0	74.0	74.0	40	48.1	1	2	68	0.00	30.218 
12:40	74.6	74.6	74.6	39	48.0	1	4	68	0.00	30.218 
12:45	75.3	75.3	77.5	39	48.6	0	3	68	0.00	30.214 
12:50	75.6	75.6	77.6	38	48.2	1	5	68	0.00	30.214 
12:55	75.3	75.3	77.5	39	48.6	2	5	68	0.00	30.214 
13:00	74.7	74.7	74.7	41	49.4	2	4	90	0.00	30.203 
13:05	75.1	75.1	77.4	37	47.0	0	2	90	0.00	30.203 
13:10	75.8	75.8	77.7	39	49.1	1	2	90	0.00	30.203 
13:15	76.1	76.1	77.8	39	49.3	0	2	90	0.00	30.203 
13:20	76.3	76.3	77.8	37	48.1	0	2	90	0.00	30.203 
13:25	76.0	76.0	77.6	36	47.1	1	4	90	0.00	30.203 
13:30	76.1	76.1	77.7	37	47.9	1	6	90	0.00	30.194 
13:35	76.1	76.1	77.7	36	47.2	1	4	90	0.00	30.194 
13:40	76.5	76.5	77.8	36	47.5	1	3	90	0.00	30.194 
13:45	77.0	77.0	78.0	35	47.2	1	3	90	0.00	30.188 
13:50	77.4	77.4	78.1	35	47.6	1	4	90	0.00	30.188 
13:55	77.0	77.0	78.0	36	48.0	1	4	90	0.00	30.188 
14:00	76.5	76.5	78.0	39	49.7	2	6	90	0.00	30.185 
14:05	76.5	76.5	77.8	36	47.5	1	3	90	0.00	30.185 
14:10	76.7	76.7	77.9	35	47.0	0	2	90	0.00	30.185 
14:15	77.2	77.2	78.1	35	47.4	1	4	90	0.00	30.179 
14:20	77.2	77.2	78.0	34	46.6	1	4	90	0.00	30.179 
14:25	77.7	77.7	78.2	33	46.3	1	4	90	0.00	30.179 
14:30	78.1	78.1	78.4	34	47.4	1	4	90	0.00	30.170 
14:35	78.3	78.3	78.5	33	46.8	1	3	90	0.00	30.170 
14:40	78.3	78.3	78.4	32	46.0	1	4	90	0.00	30.170 
14:45	78.5	78.5	78.6	33	47.0	1	3	90	0.00	30.163 
14:50	78.5	78.5	78.6	33	47.0	1	2	90	0.00	30.163 
14:55	78.6	78.6	78.7	34	47.9	1	3	90	0.00	30.163 
15:00	78.6	78.6	78.5	32	46.3	0	3	90	0.00	30.157 
15:05	78.8	78.8	78.7	33	47.2	1	4	90	0.00	30.157 
15:10	79.0	79.0	78.8	32	46.6	1	4	112	0.00	30.157 
15:15	78.8	78.8	78.6	32	46.4	1	4	112	0.00	30.154 
15:20	79.0	79.0	78.8	33	47.4	1	4	112	0.00	30.154 
15:25	78.8	78.8	78.6	32	46.4	1	4	112	0.00	30.154 
15:30	79.0	79.0	78.8	32	46.6	1	3	112	0.00	30.149 
15:35	78.6	78.6	78.5	32	46.3	2	5	90	0.00	30.149 
15:40	78.5	78.5	78.6	33	47.0	1	3	90	0.00	30.149 
15:45	78.6	78.6	78.6	33	47.1	2	4	90	0.00	30.141 
15:50	79.0	79.0	78.9	34	48.2	1	3	90	0.00	30.141 
15:55	79.4	79.4	78.9	31	46.1	1	4	90	0.00	30.141 
16:00	79.4	79.4	79.0	33	47.8	1	3	90	0.00	30.138 
16:05	79.6	79.6	79.0	31	46.3	0	2	90	0.00	30.138 
16:10	79.8	79.8	79.1	31	46.5	1	3	90	0.00	30.138 
16:15	79.8	79.8	79.1	31	46.5	1	2	90	0.00	30.138 
16:20	79.9	79.9	79.1	30	45.7	0	1	90	0.00	30.138 
16:25	79.9	79.9	79.2	31	46.5	0	2	90	0.00	30.138 
16:30	79.9	79.9	79.2	31	46.5	0	1	90	0.00	30.128 
16:35	79.9	79.9	79.2	31	46.5	0	2	90	0.00	30.128 
16:40	79.9	79.9	79.2	31	46.5	0	2	90	0.00	30.128 
16:45	79.8	79.8	79.1	31	46.5	1	3	90	0.00	30.125 
16:50	79.6	79.6	79.0	30	45.4	0	2	90	0.00	30.125 
16:55	79.6	79.6	79.0	31	46.3	0	3	90	0.00	30.125 
17:00	79.4	79.4	78.9	31	46.1	0	4	90	0.00	30.123 
17:05	79.4	79.4	78.9	31	46.1	0	2	90	0.00	30.123 
17:10	79.4	79.4	79.0	32	46.9	0	1	90	0.00	30.123 
17:15	79.6	79.6	79.1	32	47.1	0	1	90	0.00	30.117 
17:20	79.8	79.8	79.1	31	46.5	0	2	90	0.00	30.117 
17:25	79.6	79.6	79.0	31	46.3	0	2	90	0.00	30.117 
17:30	79.8	79.8	79.1	31	46.5	0	2	90	0.00	30.110 
17:35	79.8	79.8	79.0	29	44.7	0	2	90	0.00	30.110 
17:40	79.8	79.8	79.0	29	44.7	1	2	90	0.00	30.110 
17:45	79.8	79.8	79.0	29	44.7	0	2	90	0.00	30.106 
17:50	79.8	79.8	79.0	29	44.7	1	2	90	0.00	30.106 
17:55	79.6	79.6	79.0	30	45.4	0	2	90	0.00	30.106 
18:00	79.8	79.8	79.1	30	45.6	0	2	90	0.00	30.103 
18:05	79.8	79.8	79.1	31	46.5	0	2	90	0.00	30.103 
18:10	79.4	79.4	78.8	30	45.2	0	2	90	0.00	30.103 
18:15	79.2	79.2	78.8	31	45.9	0	1	90	0.00	30.107 
18:20	78.8	78.8	78.6	31	45.6	0	1	90	0.00	30.107 
18:25	78.6	78.6	78.5	31	45.4	0	2	90	0.00	30.107 
18:30	78.5	78.5	78.5	32	46.2	0	1	90	0.00	30.107 
18:35	78.5	78.5	78.4	31	45.3	0	1	90	0.00	30.107 
18:40	78.5	78.5	78.5	32	46.2	0	1	90	0.00	30.107 
18:45	78.3	78.3	78.5	33	46.8	0	1	90	0.00	30.107 
18:50	78.3	78.3	78.5	34	47.6	0	1	90	0.00	30.107 
18:55	78.1	78.1	78.4	33	46.6	0	1	90	0.00	30.107 
19:00	77.9	77.9	78.3	33	46.5	0	0	---	0.00	30.101 
19:05	77.7	77.7	78.2	33	46.3	0	2	90	0.00	30.101 
19:10	77.6	77.6	78.1	33	46.2	0	1	90	0.00	30.101 
19:15	77.4	77.4	78.1	34	46.8	0	1	90	0.00	30.099 
19:20	77.2	77.2	78.0	34	46.6	0	1	90	0.00	30.099 
19:25	77.0	77.0	78.0	35	47.2	0	0	---	0.00	30.099 
19:30	76.8	76.8	78.0	37	48.5	0	0	---	0.00	30.094 
19:35	76.5	76.5	78.0	39	49.7	0	1	90	0.00	30.094 
19:40	75.8	75.8	77.7	39	49.1	0	0	---	0.00	30.094 
19:45	75.4	75.4	77.6	40	49.4	0	1	90	0.00	30.092 
19:50	75.1	75.1	77.6	41	49.8	0	1	90	0.00	30.092 
19:55	74.6	74.6	74.6	41	49.3	0	0	---	0.00	30.092 
20:00	74.2	74.2	74.2	42	49.6	0	0	---	0.00	30.095 
20:05	73.7	73.7	73.7	43	49.8	0	0	---	0.00	30.095 
20:10	73.2	73.2	73.2	43	49.3	0	0	---	0.00	30.095 
20:15	72.7	72.7	72.7	45	50.1	0	0	---	0.00	30.089 
20:20	72.1	72.1	72.1	47	50.7	0	0	---	0.00	30.089 
20:25	71.5	71.5	71.5	48	50.8	0	0	---	0.00	30.089 
20:30	70.8	70.8	70.8	49	50.7	0	0	---	0.00	30.090 
20:35	70.3	70.3	70.3	50	50.8	0	0	---	0.00	30.090 
20:40	69.8	69.8	69.8	50	50.3	0	0	---	0.00	30.090 
20:45	69.4	69.4	69.4	51	50.5	0	0	---	0.00	30.089 
20:50	68.9	68.9	68.9	53	51.1	0	0	---	0.00	30.089 
20:55	68.4	68.4	68.4	53	50.6	0	0	---	0.00	30.089 
21:00	67.9	67.9	67.9	53	50.1	0	0	---	0.00	30.096 
21:05	67.4	67.4	67.4	54	50.2	0	0	---	0.00	30.096 
21:10	67.1	67.1	67.1	56	50.9	0	0	---	0.00	30.096 
21:15	66.8	66.8	66.8	57	51.1	0	0	---	0.00	30.091 
21:20	66.6	66.6	66.6	58	51.4	0	0	---	0.00	30.091 
21:25	66.1	66.1	66.1	58	50.9	0	0	---	0.00	30.091 
21:30	65.8	65.8	65.8	60	51.5	0	0	---	0.00	30.092 
21:35	65.3	65.3	65.3	61	51.5	0	0	---	0.00	30.092 
21:40	65.0	65.0	65.0	62	51.7	0	0	---	0.00	30.092 
21:45	64.7	64.7	64.7	61	50.9	0	0	---	0.00	30.093 
21:50	64.3	64.3	64.3	62	51.0	0	0	---	0.00	30.093 
21:55	64.2	64.2	64.2	63	51.3	0	0	---	0.00	30.093 
22:00	64.0	64.0	64.0	63	51.1	0	0	---	0.00	30.085 
22:05	63.7	63.7	63.7	64	51.3	0	0	---	0.00	30.085 
22:10	63.5	63.5	63.5	65	51.5	0	0	---	0.00	30.085 
22:15	63.2	63.2	63.2	65	51.2	0	0	---	0.00	30.079 
22:20	63.1	63.1	63.1	66	51.6	0	0	---	0.00	30.079 
22:25	62.7	62.7	62.7	67	51.6	0	0	---	0.00	30.079 
22:30	62.4	62.4	62.4	68	51.7	0	0	---	0.00	30.082 
22:35	62.3	62.3	62.3	68	51.6	0	0	---	0.00	30.082 
22:40	62.1	62.1	62.1	69	51.8	0	0	---	0.00	30.082 
22:45	62.0	62.0	62.0	69	51.7	0	0	---	0.00	30.078 
22:50	61.8	61.8	61.8	69	51.5	0	0	---	0.00	30.078 
22:55	61.6	61.6	61.6	70	51.7	0	0	---	0.00	30.078 
23:00	61.3	61.3	61.3	71	51.8	0	0	---	0.00	30.077 
23:05	61.2	61.2	61.2	72	52.1	0	0	---	0.00	30.077 
23:10	61.0	61.0	61.0	72	51.9	0	0	---	0.00	30.077 
23:15	60.9	60.9	60.9	73	52.2	0	0	---	0.00	30.072 
23:20	60.7	60.7	60.7	73	52.0	0	0	---	0.00	30.072 
23:25	60.5	60.5	60.5	73	51.8	0	0	---	0.00	30.072 
23:30	60.4	60.4	60.4	73	51.7	0	0	---	0.00	30.072 
23:35	60.2	60.2	60.2	73	51.5	0	0	---	0.00	30.072 
23:40	60.2	60.2	60.2	73	51.5	0	0	---	0.00	30.072 
23:45	60.2	60.2	60.2	73	51.5	0	0	---	0.00	30.069 
23:50	60.1	60.1	60.1	74	51.8	0	0	---	0.00	30.069 
23:55	60.1	60.1	60.1	73	51.4	0	0	---	0.00	30.069 

CoCoRaHS
IN-AL-39
A2 Web Hosting
Creative Commons License
GoDaddy
search engine by freefind advanced

loaded 2018-11-22 05:52:21 • last modified 2010-11-18 10:43:29
Privacy PolicyDisclaimer
• wx.awcolley.com is powered by PmWiki v.2002016 •
• all content (unless otherwise noted) © 2018 A W Colley